createdAt,value
2018-01-11T00:00:04.611Z,13.80
2018-01-11T00:02:32.147Z,13.30
2018-01-11T00:04:59.604Z,13.02
2018-01-11T00:07:27.802Z,13.38
2018-01-11T00:09:55.265Z,12.93
2018-01-11T00:12:22.683Z,13.43
2018-01-11T00:14:50.111Z,12.98
2018-01-11T00:17:17.587Z,12.85
2018-01-11T00:19:45.002Z,13.13
2018-01-11T00:22:13.183Z,13.52
2018-01-11T00:24:40.691Z,15.00
2018-01-11T00:27:08.115Z,12.48
2018-01-11T00:29:35.641Z,15.02
2018-01-11T00:32:03.071Z,14.45
2018-01-11T00:34:31.289Z,13.60
2018-01-11T00:36:58.710Z,13.65
2018-01-11T00:39:26.907Z,16.17
2018-01-11T00:41:54.328Z,15.93
2018-01-11T00:44:21.994Z,16.02
2018-01-11T00:46:49.462Z,16.08
2018-01-11T00:49:16.903Z,15.52
2018-01-11T00:51:45.098Z,16.92
2018-01-11T00:54:13.303Z,16.92
2018-01-11T00:56:40.772Z,16.55
2018-01-11T00:59:08.201Z,17.42
2018-01-11T01:01:36.432Z,15.93
2018-01-11T01:04:03.893Z,17.12
2018-01-11T01:06:31.372Z,17.30
2018-01-11T01:08:58.840Z,17.98
2018-01-11T01:11:26.276Z,18.33
2018-01-11T01:13:54.463Z,19.17
2018-01-11T01:16:22.683Z,18.05
2018-01-11T01:18:50.104Z,18.40
2018-01-11T01:21:17.624Z,19.87
2018-01-11T01:23:45.044Z,17.33
2018-01-11T01:26:12.472Z,18.95
2018-01-11T01:28:39.931Z,18.77
2018-01-11T01:31:07.400Z,18.62
2018-01-11T01:33:34.828Z,19.15
2018-01-11T01:36:02.340Z,18.75
2018-01-11T01:38:29.803Z,18.92
2018-01-11T01:40:57.234Z,18.50
2018-01-11T01:43:24.656Z,18.48
2018-01-11T01:45:53.079Z,19.67
2018-01-11T01:51:23.004Z,19.23
2018-01-11T01:53:50.423Z,19.45
2018-01-11T01:56:18.616Z,21.15
2018-01-11T01:58:46.132Z,21.58
2018-01-11T02:01:13.591Z,22.13
2018-01-11T02:03:41.063Z,20.45
2018-01-11T02:06:09.391Z,22.70
2018-01-11T02:08:36.829Z,21.87
2018-01-11T02:11:04.293Z,22.37
2018-01-11T02:13:31.760Z,21.08
2018-01-11T02:15:59.203Z,21.33
2018-01-11T02:18:27.389Z,19.17
2018-01-11T02:20:55.576Z,20.83
2018-01-11T02:23:23.795Z,20.17
2018-01-11T02:25:51.268Z,21.05
2018-01-11T02:28:18.820Z,21.55
2018-01-11T02:30:46.243Z,20.88
2018-01-11T02:33:13.780Z,19.37
2018-01-11T02:35:41.243Z,21.15
2018-01-11T02:38:08.676Z,21.12
2018-01-11T02:40:40.020Z,22.87
2018-01-11T02:43:07.547Z,21.50
2018-01-11T02:45:35.020Z,20.60
2018-01-11T02:48:02.448Z,21.02
2018-01-11T02:50:29.952Z,20.52
2018-01-11T02:52:57.377Z,20.23
2018-01-11T02:55:24.895Z,20.08
2018-01-11T02:57:52.372Z,20.55
2018-01-11T03:00:25.367Z,21.98
2018-01-11T03:02:52.840Z,21.40
2018-01-11T03:05:20.257Z,22.45
2018-01-11T03:07:47.688Z,20.88
2018-01-11T03:10:15.116Z,20.45
2018-01-11T03:12:43.312Z,20.88
2018-01-11T03:15:11.521Z,21.10
2018-01-11T03:17:38.939Z,23.10
2018-01-11T03:20:06.363Z,24.02
2018-01-11T03:22:33.825Z,22.45
2018-01-11T03:25:01.291Z,21.05
2018-01-11T03:27:28.728Z,24.25
2018-01-11T03:29:56.947Z,26.35
2018-01-11T03:32:24.372Z,24.85
2018-01-11T03:34:51.888Z,22.70
2018-01-11T03:37:19.307Z,22.80
2018-01-11T03:39:46.823Z,23.10
2018-01-11T03:42:14.294Z,22.08
2018-01-11T03:44:41.719Z,22.67
2018-01-11T03:47:09.239Z,22.75
2018-01-11T03:49:36.664Z,23.05
2018-01-11T03:52:04.180Z,22.33
2018-01-11T03:54:31.647Z,21.83
2018-01-11T03:56:59.073Z,22.50
2018-01-11T03:59:26.592Z,22.17
2018-01-11T04:01:54.008Z,21.60
2018-01-11T04:04:21.533Z,21.85
2018-01-11T04:06:48.991Z,21.60
2018-01-11T04:09:16.464Z,21.65
2018-01-11T04:11:43.888Z,22.30
2018-01-11T04:14:11.408Z,21.77
2018-01-11T04:16:38.828Z,22.58
2018-01-11T04:19:06.256Z,22.40
2018-01-11T04:21:33.719Z,22.80
2018-01-11T04:24:01.135Z,23.10
2018-01-11T04:26:28.560Z,23.27
2018-01-11T04:28:56.024Z,24.02
2018-01-11T04:31:23.452Z,22.70
2018-01-11T04:33:50.964Z,22.95
2018-01-11T04:36:18.391Z,22.42
2018-01-11T04:38:45.882Z,23.35
2018-01-11T04:41:13.317Z,21.87
2018-01-11T04:43:40.732Z,23.55
2018-01-11T04:46:08.159Z,22.37
2018-01-11T04:48:35.575Z,23.30
2018-01-11T04:51:03.043Z,23.10
2018-01-11T04:53:30.516Z,22.92
2018-01-11T04:55:57.980Z,23.67
2018-01-11T04:58:25.456Z,22.13
2018-01-11T05:00:53.789Z,22.37
2018-01-11T05:03:21.200Z,23.25
2018-01-11T05:05:48.631Z,22.48
2018-01-11T05:08:16.047Z,22.77
2018-01-11T05:10:43.559Z,22.80
2018-01-11T05:13:10.939Z,23.33
2018-01-11T05:15:38.459Z,22.58
2018-01-11T05:18:05.880Z,23.48
2018-01-11T05:20:33.404Z,22.13
2018-01-11T05:23:00.827Z,22.25
2018-01-11T05:25:28.339Z,22.42
2018-01-11T05:27:56.507Z,22.85
2018-01-11T05:30:24.696Z,23.85
2018-01-11T05:32:52.131Z,21.70
2018-01-11T05:35:19.552Z,19.30
2018-01-11T05:37:46.979Z,21.23
2018-01-11T05:40:14.489Z,22.37
2018-01-11T05:42:41.919Z,23.42
2018-01-11T05:45:09.423Z,21.15
2018-01-11T05:47:36.852Z,20.20
2018-01-11T05:50:04.373Z,19.20
2018-01-11T05:52:32.798Z,19.52
2018-01-11T05:55:00.233Z,20.95
2018-01-11T05:57:27.695Z,19.45
2018-01-11T05:59:55.124Z,21.08
2018-01-11T06:02:22.644Z,21.87
2018-01-11T06:04:50.064Z,18.77
2018-01-11T06:07:17.500Z,17.65
2018-01-11T06:09:44.924Z,19.67
2018-01-11T06:12:13.120Z,20.23
2018-01-11T06:14:40.543Z,20.00
2018-01-11T06:17:07.965Z,20.65
2018-01-11T06:19:35.435Z,21.65
2018-01-11T06:22:02.860Z,20.85
2018-01-11T06:24:30.376Z,19.95
2018-01-11T06:26:57.796Z,19.92
2018-01-11T06:29:26.044Z,19.70
2018-01-11T06:31:53.615Z,21.50
2018-01-11T06:34:21.052Z,23.15
2018-01-11T06:36:48.544Z,21.20
2018-01-11T06:39:16.024Z,19.48
2018-01-11T06:41:44.106Z,18.73
2018-01-11T06:44:11.523Z,16.98
2018-01-11T06:46:39.039Z,21.05
2018-01-11T06:49:06.468Z,18.33
2018-01-11T06:51:33.892Z,15.07
2018-01-11T06:54:01.325Z,15.95
2018-01-11T06:56:29.559Z,17.85
2018-01-11T06:58:57.004Z,18.80
2018-01-11T07:01:24.479Z,21.05
2018-01-11T07:03:51.940Z,20.55
2018-01-11T07:06:19.412Z,20.88
2018-01-11T07:08:46.839Z,20.58
2018-01-11T07:11:14.359Z,20.50
2018-01-11T07:13:41.788Z,18.87
2018-01-11T07:16:10.208Z,18.75
2018-01-11T07:18:37.686Z,19.27
2018-01-11T07:21:05.152Z,18.77
2018-01-11T07:23:32.584Z,18.70
2018-01-11T07:26:00.006Z,18.65
2018-01-11T07:28:27.427Z,18.30
2018-01-11T07:30:55.616Z,19.77
2018-01-11T07:33:23.840Z,19.10
2018-01-11T07:35:51.314Z,18.23
2018-01-11T07:38:18.767Z,17.27
2018-01-11T07:40:46.187Z,17.45
2018-01-11T07:43:13.618Z,18.65
2018-01-11T07:45:41.039Z,17.00
2018-01-11T07:48:08.473Z,18.30
2018-01-11T07:50:35.924Z,17.62
2018-01-11T07:53:03.394Z,17.60
2018-01-11T07:55:30.872Z,17.85
2018-01-11T07:57:58.287Z,17.67
2018-01-11T08:00:25.720Z,16.92
2018-01-11T08:02:53.140Z,18.05
2018-01-11T08:05:21.440Z,17.80
2018-01-11T08:07:48.860Z,17.50
2018-01-11T08:10:16.387Z,18.25
2018-01-11T08:12:43.904Z,17.75
2018-01-11T08:15:11.335Z,17.08
2018-01-11T08:17:38.760Z,16.98
2018-01-11T08:20:06.183Z,17.30
2018-01-11T08:22:33.612Z,17.75
2018-01-11T08:25:01.807Z,16.67
2018-01-11T08:27:30.017Z,17.33
2018-01-11T08:29:57.439Z,18.10
2018-01-11T08:32:24.864Z,19.10
2018-01-11T08:34:52.296Z,19.05
2018-01-11T08:37:20.484Z,18.42
2018-01-11T08:39:48.680Z,18.85
2018-01-11T08:42:16.095Z,19.27
2018-01-11T08:44:43.635Z,18.80
2018-01-11T08:47:11.055Z,19.83
2018-01-11T08:49:38.580Z,22.77
2018-01-11T08:52:06.048Z,22.33
2018-01-11T08:54:33.471Z,20.02
2018-01-11T08:57:00.891Z,21.52
2018-01-11T08:59:28.360Z,19.58
2018-01-11T09:01:55.774Z,23.42
2018-01-11T09:04:23.212Z,22.08
2018-01-11T09:06:50.660Z,20.10
2018-01-11T09:09:18.088Z,18.30
2018-01-11T09:11:45.508Z,15.25
2018-01-11T09:14:12.972Z,17.92
2018-01-11T09:16:40.392Z,16.58
2018-01-11T09:19:07.963Z,14.18
2018-01-11T09:21:35.372Z,14.93
2018-01-11T09:24:02.847Z,15.30
2018-01-11T09:26:30.312Z,14.63
2018-01-11T09:28:57.783Z,15.65
2018-01-11T09:31:25.199Z,16.62
2018-01-11T09:33:52.631Z,16.17
2018-01-11T09:36:20.087Z,16.02
2018-01-11T09:38:47.560Z,17.20
2018-01-11T09:41:15.028Z,18.52
2018-01-11T09:43:42.463Z,18.40
2018-01-11T09:46:09.969Z,16.25
2018-01-11T09:48:37.401Z,14.15
2018-01-11T09:51:04.817Z,14.80
2018-01-11T09:53:32.235Z,12.82
2018-01-11T09:55:59.744Z,12.85
2018-01-11T09:58:27.164Z,13.55
2018-01-11T10:00:54.598Z,14.05
2018-01-11T10:03:22.068Z,13.00
2018-01-11T10:05:49.521Z,13.93
2018-01-11T10:08:16.940Z,12.75
2018-01-11T10:10:44.464Z,13.55
2018-01-11T10:13:12.651Z,14.02
2018-01-11T10:15:40.075Z,13.57
2018-01-11T10:18:07.496Z,13.50
2018-01-11T10:20:34.924Z,13.43
2018-01-11T10:23:03.103Z,14.98
2018-01-11T10:25:30.527Z,13.90
2018-01-11T10:27:57.987Z,14.77
2018-01-11T10:30:25.411Z,14.27
2018-01-11T10:32:52.836Z,13.57
2018-01-11T10:35:20.262Z,13.93
2018-01-11T10:37:48.455Z,13.45
2018-01-11T10:40:16.660Z,13.98
2018-01-11T10:42:44.075Z,12.82
2018-01-11T10:45:11.500Z,13.27
2018-01-11T10:47:38.972Z,14.43
2018-01-11T10:50:06.400Z,13.10
2018-01-11T10:52:33.912Z,12.63
2018-01-11T10:55:01.339Z,12.37
2018-01-11T10:57:29.529Z,12.20
2018-01-11T10:59:57.045Z,10.88
2018-01-11T11:02:30.196Z,11.68
2018-01-11T11:04:57.815Z,11.40
2018-01-11T11:07:25.231Z,11.93
2018-01-11T11:09:52.666Z,11.27
2018-01-11T11:12:20.078Z,11.40
2018-01-11T11:14:47.503Z,12.55
2018-01-11T11:17:14.955Z,13.07
2018-01-11T11:19:42.391Z,12.10
2018-01-11T11:22:10.615Z,11.90
2018-01-11T11:24:38.039Z,11.45
2018-01-11T11:27:05.459Z,10.88
2018-01-11T11:29:32.891Z,11.20
2018-01-11T11:32:01.079Z,10.07
2018-01-11T11:34:29.272Z,10.75
2018-01-11T11:36:57.580Z,11.30
2018-01-11T11:39:25.056Z,12.32
2018-01-11T11:41:52.527Z,12.55
2018-01-11T11:44:19.955Z,12.23
2018-01-11T11:46:47.463Z,12.18
2018-01-11T11:49:14.891Z,11.75
2018-01-11T11:51:42.312Z,12.65
2018-01-11T11:54:09.873Z,12.57
2018-01-11T11:56:38.060Z,12.65
2018-01-11T11:59:05.479Z,11.48
2018-01-11T12:01:32.903Z,12.65
2018-01-11T12:04:00.327Z,16.42
2018-01-11T12:06:27.840Z,14.05
2018-01-11T12:08:55.719Z,13.95
2018-01-11T12:11:23.187Z,14.70
2018-01-11T12:13:50.612Z,13.48
2018-01-11T12:16:18.127Z,14.40
2018-01-11T12:18:45.596Z,12.90
2018-01-11T12:21:13.021Z,14.32
2018-01-11T12:23:40.435Z,15.52
2018-01-11T12:26:07.866Z,15.55
2018-01-11T12:28:36.047Z,16.27
2018-01-11T12:31:03.563Z,15.20
2018-01-11T12:33:31.027Z,16.37
2018-01-11T12:35:58.459Z,16.52
2018-01-11T12:38:25.879Z,16.75
2018-01-11T12:40:53.312Z,16.70
2018-01-11T12:43:21.592Z,17.17
2018-01-11T12:45:49.791Z,16.92
2018-01-11T12:48:18.009Z,16.52
2018-01-11T12:50:45.472Z,17.00
2018-01-11T12:53:12.895Z,24.90
2018-01-11T12:55:40.416Z,18.70
2018-01-11T12:58:07.831Z,18.17
2018-01-11T13:00:35.255Z,17.65
2018-01-11T13:03:02.679Z,17.45
2018-01-11T13:05:31.007Z,17.77
2018-01-11T13:07:58.426Z,17.67
2018-01-11T13:10:25.856Z,17.17
2018-01-11T13:12:53.280Z,16.85
2018-01-11T13:15:21.475Z,17.45
2018-01-11T13:17:49.682Z,17.37
2018-01-11T13:20:17.152Z,18.12
2018-01-11T13:22:44.580Z,17.85
2018-01-11T13:25:12.003Z,16.95
2018-01-11T13:27:39.422Z,17.58
2018-01-11T13:30:07.616Z,18.40
2018-01-11T13:32:35.806Z,18.67
2018-01-11T13:35:03.991Z,17.60
2018-01-11T13:37:32.179Z,17.95
2018-01-11T13:40:00.375Z,17.25
2018-01-11T13:42:28.588Z,17.77
2018-01-11T13:44:56.011Z,21.95
2018-01-11T13:47:23.525Z,20.73
2018-01-11T13:49:51.199Z,22.15
2018-01-11T13:52:18.670Z,23.48
2018-01-11T13:54:46.136Z,22.25
2018-01-11T13:57:13.603Z,22.25
2018-01-11T13:59:41.072Z,21.67
2018-01-11T14:02:08.495Z,21.73
2018-01-11T14:04:35.912Z,22.48
2018-01-11T14:07:03.384Z,21.40
2018-01-11T14:09:30.813Z,19.75
2018-01-11T14:11:58.228Z,19.77
2018-01-11T14:14:25.656Z,19.48
2018-01-11T14:16:53.850Z,19.87
2018-01-11T14:19:22.066Z,18.73
2018-01-11T14:21:49.537Z,19.55
2018-01-11T14:24:16.958Z,20.00
2018-01-11T14:26:44.403Z,19.62
2018-01-11T14:29:11.830Z,19.67
2018-01-11T14:31:39.314Z,19.87
2018-01-11T14:34:06.783Z,18.75
2018-01-11T14:36:34.212Z,20.20
2018-01-11T14:39:01.628Z,21.95
2018-01-11T14:41:29.059Z,20.42
2018-01-11T14:43:57.252Z,20.95
2018-01-11T14:46:25.469Z,19.87
2018-01-11T14:48:52.900Z,21.50
2018-01-11T14:51:20.320Z,21.92
2018-01-11T14:53:47.740Z,24.55
2018-01-11T14:56:15.957Z,20.60
2018-01-11T14:58:43.371Z,22.65
2018-01-11T15:01:10.799Z,22.65
2018-01-11T15:03:38.256Z,20.70
2018-01-11T15:06:05.728Z,21.58
2018-01-11T15:08:33.148Z,21.00
2018-01-11T15:11:00.668Z,23.00
2018-01-11T15:13:28.088Z,21.42
2018-01-11T15:15:55.515Z,23.20
2018-01-11T15:18:22.935Z,22.35
2018-01-11T15:20:51.128Z,21.55
2018-01-11T15:23:19.316Z,23.08
2018-01-11T15:25:47.507Z,23.75
2018-01-11T15:28:15.751Z,21.65
2018-01-11T15:30:43.167Z,25.08
2018-01-11T15:33:11.347Z,24.27
2018-01-11T15:35:39.565Z,25.95
2018-01-11T15:38:06.979Z,27.02
2018-01-11T15:40:34.411Z,27.17
2018-01-11T15:43:01.903Z,26.90
2018-01-11T15:45:29.348Z,25.75
2018-01-11T15:47:56.763Z,24.60
2018-01-11T15:50:24.288Z,22.37
2018-01-11T15:52:51.703Z,22.25
2018-01-11T15:55:19.225Z,21.42
2018-01-11T15:57:46.643Z,20.45
2018-01-11T16:00:14.068Z,20.73
2018-01-11T16:02:41.532Z,19.48
2018-01-11T16:05:08.951Z,18.48
2018-01-11T16:07:36.475Z,19.62
2018-01-11T16:10:03.893Z,17.67
2018-01-11T16:12:31.318Z,16.35
2018-01-11T16:14:58.741Z,17.42
2018-01-11T16:17:26.225Z,19.73
2018-01-11T16:19:53.579Z,20.80
2018-01-11T16:22:21.771Z,18.83
2018-01-11T16:24:49.973Z,18.05
2018-01-11T16:27:17.399Z,17.62
2018-01-11T16:29:44.923Z,17.12
2018-01-11T16:32:12.347Z,17.12
2018-01-11T16:34:39.874Z,16.23
2018-01-11T16:37:07.303Z,17.77
2018-01-11T16:39:35.491Z,17.23
2018-01-11T16:42:03.688Z,16.20
2018-01-11T16:44:31.179Z,17.05
2018-01-11T16:46:58.652Z,18.23
2018-01-11T16:49:26.072Z,24.20
2018-01-11T16:51:53.587Z,53.55
2018-01-11T16:54:21.017Z,86.53
2018-01-11T16:56:48.539Z,72.60
2018-01-11T16:59:15.961Z,36.13
2018-01-11T17:01:43.464Z,30.55
2018-01-11T17:04:10.936Z,34.13
2018-01-11T17:06:38.426Z,32.42
2018-01-11T17:09:05.875Z,28.83
2018-01-11T17:11:33.308Z,25.23
2018-01-11T17:14:00.815Z,22.05
2018-01-11T17:16:28.293Z,19.62
2018-01-11T17:18:55.711Z,18.45
2018-01-11T17:21:23.139Z,17.55
2018-01-11T17:23:50.593Z,17.55
2018-01-11T17:26:18.024Z,17.75
2018-01-11T17:28:45.441Z,17.95
2018-01-11T17:31:12.863Z,19.02
2018-01-11T17:33:41.047Z,19.33
2018-01-11T17:36:08.470Z,17.95
2018-01-11T17:38:35.935Z,17.02
2018-01-11T17:41:03.368Z,16.70
2018-01-11T17:43:31.563Z,16.95
2018-01-11T17:45:58.991Z,16.95
2018-01-11T17:48:26.523Z,15.90
2018-01-11T17:50:53.947Z,15.88
2018-01-11T17:53:21.372Z,14.77
2018-01-11T17:55:48.838Z,15.02
2018-01-11T17:58:16.291Z,15.02
2018-01-11T18:00:43.760Z,14.40
2018-01-11T18:03:11.183Z,15.27
2018-01-11T18:05:38.563Z,16.25
2018-01-11T18:08:06.000Z,16.55
2018-01-11T18:10:33.420Z,15.90
2018-01-11T18:13:01.611Z,15.30
2018-01-11T18:15:29.104Z,14.13
2018-01-11T18:17:56.536Z,15.70
2018-01-11T18:20:24.768Z,16.50
2018-01-11T18:22:52.931Z,16.12
2018-01-11T18:25:20.422Z,16.45
2018-01-11T18:27:47.852Z,16.65
2018-01-11T18:30:16.039Z,16.20
2018-01-11T18:32:44.252Z,15.50
2018-01-11T18:35:11.673Z,15.68
2018-01-11T18:37:39.863Z,14.23
2018-01-11T18:40:08.067Z,14.77
2018-01-11T18:42:37.619Z,15.43
2018-01-11T18:45:05.044Z,15.30
2018-01-11T18:47:32.475Z,14.38
2018-01-11T18:49:59.892Z,16.00
2018-01-11T18:52:28.088Z,15.63
2018-01-11T18:54:56.275Z,15.38
2018-01-11T18:57:24.466Z,16.33
2018-01-11T18:59:51.891Z,16.42
2018-01-11T19:02:19.319Z,17.15
2018-01-11T19:04:46.739Z,16.50
2018-01-11T19:07:14.172Z,17.00
2018-01-11T19:09:41.594Z,16.30
2018-01-11T19:12:09.783Z,17.98
2018-01-11T19:14:38.004Z,18.20
2018-01-11T19:17:05.431Z,19.23
2018-01-11T19:19:33.611Z,19.48
2018-01-11T19:22:01.045Z,17.75
2018-01-11T19:24:28.459Z,18.23
2018-01-11T19:26:55.963Z,17.45
2018-01-11T19:29:23.379Z,16.33
2018-01-11T19:31:50.811Z,17.62
2018-01-11T19:34:18.268Z,15.98
2018-01-11T19:36:45.691Z,16.33
2018-01-11T19:39:13.877Z,17.12
2018-01-11T19:41:42.066Z,17.37
2018-01-11T19:44:09.496Z,17.92
2018-01-11T19:46:36.923Z,20.88
2018-01-11T19:49:05.112Z,19.23
2018-01-11T19:51:33.303Z,19.87
2018-01-11T19:54:01.488Z,18.50
2018-01-11T19:56:29.679Z,18.12
2018-01-11T19:58:57.885Z,18.70
2018-01-11T20:01:26.118Z,19.95
2018-01-11T20:03:53.539Z,20.80
2018-01-11T20:06:20.965Z,19.77
2018-01-11T20:08:48.479Z,19.37
2018-01-11T20:11:15.908Z,19.67
2018-01-11T20:13:43.336Z,21.10
2018-01-11T20:16:10.753Z,27.20
2018-01-11T20:18:38.951Z,26.73
2018-01-11T20:21:07.135Z,25.23
2018-01-11T20:23:35.332Z,27.42
2018-01-11T20:26:03.538Z,35.63
2018-01-11T20:28:30.963Z,35.17
2018-01-11T20:30:58.384Z,34.05
2018-01-11T20:33:25.807Z,29.75
2018-01-11T20:35:54.004Z,28.52
2018-01-11T20:38:22.195Z,27.87
2018-01-11T20:40:50.384Z,26.12
2018-01-11T20:43:18.580Z,24.80
2018-01-11T20:45:46.000Z,26.65
2018-01-11T20:48:13.431Z,25.00
2018-01-11T20:50:40.848Z,24.27
2018-01-11T20:53:08.364Z,24.20
2018-01-11T20:55:35.787Z,25.42
2018-01-11T20:58:03.221Z,23.98
2018-01-11T21:00:30.641Z,25.35
2018-01-11T21:02:58.843Z,25.27
2018-01-11T21:05:27.031Z,24.33
2018-01-11T21:07:54.519Z,23.10
2018-01-11T21:10:21.940Z,21.95
2018-01-11T21:12:49.452Z,22.83
2018-01-11T21:15:16.875Z,23.77
2018-01-11T21:17:45.835Z,22.02
2018-01-11T21:20:13.256Z,23.23
2018-01-11T21:22:40.771Z,21.35
2018-01-11T21:25:08.240Z,20.95
2018-01-11T21:27:35.668Z,20.70
2018-01-11T21:30:03.120Z,22.40
2018-01-11T21:32:30.527Z,22.23
2018-01-11T21:34:58.707Z,22.02
2018-01-11T21:37:26.920Z,22.50
2018-01-11T21:39:54.340Z,19.52
2018-01-11T21:42:21.763Z,21.40
2018-01-11T21:44:49.228Z,21.75
2018-01-11T21:47:16.656Z,21.23
2018-01-11T21:49:44.076Z,22.73
2018-01-11T21:52:11.507Z,21.30
2018-01-11T21:54:39.734Z,20.27
2018-01-11T21:57:07.193Z,20.27
2018-01-11T21:59:34.656Z,22.45
2018-01-11T22:02:02.128Z,21.35
2018-01-11T22:04:29.543Z,21.62
2018-01-11T22:06:56.995Z,20.10
2018-01-11T22:09:24.438Z,18.23
2018-01-11T22:11:51.912Z,20.48
2018-01-11T22:14:19.328Z,21.05
2018-01-11T22:16:46.772Z,20.65
2018-01-11T22:19:14.188Z,20.65
2018-01-11T22:21:42.403Z,21.52
2018-01-11T22:24:09.868Z,22.65
2018-01-11T22:26:37.336Z,21.17
2018-01-11T22:29:04.767Z,22.37
2018-01-11T22:31:32.191Z,21.33
2018-01-11T22:33:59.631Z,19.58
2018-01-11T22:36:27.835Z,20.42
2018-01-11T22:38:55.307Z,22.67
2018-01-11T22:41:22.788Z,22.42
2018-01-11T22:43:50.212Z,21.45
2018-01-11T22:46:17.638Z,23.27
2018-01-11T22:48:45.064Z,22.58
2018-01-11T22:51:12.493Z,25.40
2018-01-11T22:53:39.915Z,27.20
2018-01-11T22:56:07.336Z,26.70
2018-01-11T22:58:34.768Z,27.70
2018-01-11T23:01:02.221Z,27.05
2018-01-11T23:03:29.642Z,26.08
2018-01-11T23:05:57.168Z,26.15
2018-01-11T23:08:24.591Z,26.73
2018-01-11T23:10:52.103Z,27.60
2018-01-11T23:13:19.568Z,29.58
2018-01-11T23:15:46.992Z,32.70
2018-01-11T23:18:14.423Z,32.75
2018-01-11T23:20:41.876Z,34.10
2018-01-11T23:23:09.314Z,32.80
2018-01-11T23:25:36.719Z,30.27
2018-01-11T23:28:04.191Z,26.85
2018-01-11T23:30:31.616Z,25.70
2018-01-11T23:32:59.137Z,25.10
2018-01-11T23:35:26.599Z,22.98
2018-01-11T23:37:54.023Z,21.48
2018-01-11T23:40:22.260Z,20.67
2018-01-11T23:42:49.721Z,21.23
2018-01-11T23:45:17.188Z,23.77
2018-01-11T23:47:44.664Z,22.27
2018-01-11T23:50:12.135Z,21.45
2018-01-11T23:52:39.604Z,22.33
2018-01-11T23:55:07.076Z,24.58
2018-01-11T23:57:34.540Z,22.50
